Terminal Aerodrome Forecast
Issued by NWS Mt. Holly, NJ

Home | Current Version | Previous Version | Text Only | Print | Product List | Glossary On
Versions: 1 2 3 4 5 6 7 8 9 10 11 12 13 14 15 16 17 18 19 20 21 22 23 24 25 26 27 28 29
304
FTUS41 KPHI 142057 AAA
TAFPHL
TAF AMD
KPHL 142057Z 1421/1524 32010KT P6SM FEW050
     FM142200 30006KT P6SM FEW250
     FM150300 VRB03KT P6SM BKN250
     FM150900 10005KT P6SM OVC100
      TEMPO 1515/1518 -SN OVC040
     FM151800 15008KT 2SM -SN OVC025
     FM152100 10006KT 3SM -SNPL OVC012
     FM152300 09005KT 5SM -RAPL OVC008=

USA.gov is the U.S. government's official web portal to all federal, state and local government web resources and services.